Time;durP1;ratioP1;P1;durP2;ratioP2;P2;SDS_P1;SDS_P2;PMS_P1;PMS_P2;Temp;Humidity;BMP_temperature;BMP_pressure;BME280_temperature;BME280_humidity;BME280_pressure;Samples;Min_cycle;Max_cycle;Signal;HPM_P1;HPM_P2
2022/06/27 00:02:15;;;;;;;7.03;4.70;;;17.70;99.90;;;;;;4962296;28;20037;-95
2022/06/27 00:04:41;;;;;;;6.40;3.97;;;17.70;99.90;;;;;;4976589;28;20584;-96
2022/06/27 00:07:06;;;;;;;7.32;4.00;;;17.70;99.90;;;;;;4961155;28;20089;-96
2022/06/27 00:09:32;;;;;;;7.40;3.85;;;17.70;99.90;;;;;;4961431;28;20489;-96
2022/06/27 00:11:59;;;;;;;6.50;4.70;;;17.70;99.90;;;;;;4976676;28;20093;-96
2022/06/27 00:14:26;;;;;;;6.07;4.78;;;17.70;99.90;;;;;;4979384;28;20046;-96
2022/06/27 00:16:51;;;;;;;6.60;4.15;;;17.70;99.90;;;;;;4995125;28;20046;-96
2022/06/27 00:19:18;;;;;;;5.28;4.10;;;17.70;99.90;;;;;;4963640;28;20107;-96
2022/06/27 00:21:44;;;;;;;7.53;4.25;;;17.70;99.90;;;;;;4979846;28;20061;-96
2022/06/27 00:24:09;;;;;;;7.95;5.03;;;17.70;99.90;;;;;;4977902;28;20492;-95
2022/06/27 00:26:35;;;;;;;7.70;5.00;;;17.60;99.90;;;;;;4963747;28;20058;-96
2022/06/27 00:29:01;;;;;;;6.03;4.78;;;17.70;99.90;;;;;;4968110;28;20046;-96
2022/06/27 00:31:27;;;;;;;8.25;5.18;;;17.70;99.90;;;;;;4968786;28;20624;-96
2022/06/27 00:33:52;;;;;;;8.57;4.97;;;17.60;99.90;;;;;;4985958;28;20574;-96
2022/06/27 00:36:18;;;;;;;9.63;5.80;;;17.60;99.90;;;;;;4980513;28;20030;-95
2022/06/27 00:38:44;;;;;;;6.57;4.85;;;17.60;99.90;;;;;;4982699;28;20068;-95
2022/06/27 00:41:09;;;;;;;6.20;4.90;;;17.60;99.90;;;;;;4965933;28;20038;-95
2022/06/27 00:43:35;;;;;;;5.30;4.70;;;17.60;99.90;;;;;;4979500;28;20050;-96
2022/06/27 00:46:01;;;;;;;7.75;5.88;;;17.50;99.90;;;;;;4969080;28;20038;-96
2022/06/27 00:48:26;;;;;;;7.28;4.97;;;17.50;99.90;;;;;;4964474;28;20524;-95
2022/06/27 00:50:53;;;;;;;9.05;6.18;;;17.40;99.90;;;;;;4968723;28;20488;-96
2022/06/27 00:53:19;;;;;;;8.52;5.55;;;17.60;99.90;;;;;;4998862;28;20499;-96
2022/06/27 00:55:46;;;;;;;9.45;5.45;;;17.50;99.90;;;;;;4965942;28;20046;-96
2022/06/27 00:58:13;;;;;;;7.28;5.97;;;17.50;99.90;;;;;;4983791;28;20049;-96
2022/06/27 01:00:40;;;;;;;9.68;4.55;;;17.40;99.90;;;;;;4967594;28;20049;-96
2022/06/27 01:03:05;;;;;;;7.60;5.78;;;17.40;99.90;;;;;;4969191;28;20045;-96
2022/06/27 01:05:31;;;;;;;8.55;5.82;;;17.40;99.90;;;;;;4998897;28;20041;-95
2022/06/27 01:07:57;;;;;;;7.25;5.95;;;17.40;99.90;;;;;;4998090;28;20533;-96
2022/06/27 01:10:22;;;;;;;9.32;5.47;;;17.40;99.90;;;;;;5018111;28;20050;-96
2022/06/27 01:12:49;;;;;;;8.38;5.63;;;17.40;99.90;;;;;;4965422;28;20038;-96
2022/06/27 01:15:15;;;;;;;8.23;5.78;;;17.40;99.90;;;;;;4985023;28;20038;-95
2022/06/27 01:17:41;;;;;;;8.02;5.25;;;17.80;99.90;;;;;;4985272;28;20061;-96
2022/06/27 01:20:07;;;;;;;6.35;5.68;;;17.40;99.90;;;;;;4967802;28;20053;-96
2022/06/27 01:22:33;;;;;;;8.73;5.88;;;17.40;99.90;;;;;;4999279;28;20057;-95
2022/06/27 01:24:59;;;;;;;9.40;6.00;;;17.30;99.90;;;;;;4980370;28;20057;-96
2022/06/27 01:27:25;;;;;;;7.03;5.55;;;17.30;99.90;;;;;;4998020;28;20041;-96
2022/06/27 01:29:51;;;;;;;7.68;5.88;;;17.30;99.90;;;;;;4996372;28;20038;-96
2022/06/27 01:32:16;;;;;;;7.82;5.22;;;17.30;99.90;;;;;;4983052;28;20504;-96
2022/06/27 01:34:42;;;;;;;13.45;6.40;;;17.30;99.90;;;;;;4986451;28;20029;-96
2022/06/27 01:37:08;;;;;;;7.00;6.30;;;17.30;99.90;;;;;;4985745;28;20057;-96
2022/06/27 01:39:33;;;;;;;8.93;6.35;;;17.30;99.90;;;;;;4997287;28;20046;-96
2022/06/27 01:42:03;;;;;;;9.38;6.70;;;17.30;99.90;;;;;;5015088;28;20082;-96
2022/06/27 01:44:30;;;;;;;7.63;6.00;;;17.30;99.90;;;;;;4995306;28;20048;-96
2022/06/27 01:46:59;;;;;;;10.98;6.68;;;17.30;99.90;;;;;;5012483;28;20030;-96
2022/06/27 01:49:26;;;;;;;11.20;7.90;;;17.30;99.90;;;;;;5013599;28;20141;-96
2022/06/27 01:51:52;;;;;;;16.85;9.23;;;17.30;99.90;;;;;;4999132;28;20061;-96
2022/06/27 01:54:21;;;;;;;12.40;8.25;;;17.30;99.90;;;;;;5011835;28;20069;-96
2022/06/27 01:56:49;;;;;;;12.32;8.07;;;17.20;99.90;;;;;;5013941;28;20501;-96
2022/06/27 01:59:17;;;;;;;11.43;8.07;;;17.20;99.90;;;;;;5000071;28;20127;-96
2022/06/27 02:01:44;;;;;;;12.93;6.97;;;17.20;99.90;;;;;;4982180;28;20064;-96
2022/06/27 02:04:11;;;;;;;10.88;7.43;;;17.20;99.90;;;;;;5000385;28;20045;-96
2022/06/27 02:06:37;;;;;;;9.77;8.02;;;17.50;99.90;;;;;;4981186;28;20042;-95
2022/06/27 02:09:07;;;;;;;13.38;7.15;;;17.20;99.90;;;;;;4981478;28;20050;-96
2022/06/27 02:11:33;;;;;;;11.15;6.97;;;17.20;99.90;;;;;;5014332;28;20107;-96
2022/06/27 02:13:59;;;;;;;8.82;7.15;;;17.20;99.90;;;;;;5000065;28;20042;-96
2022/06/27 02:16:25;;;;;;;10.57;6.78;;;17.20;99.90;;;;;;5012195;28;20129;-96
2022/06/27 02:18:51;;;;;;;8.25;6.72;;;17.20;99.90;;;;;;4973700;28;20050;-96
2022/06/27 02:21:20;;;;;;;12.65;7.38;;;17.20;99.90;;;;;;5004062;28;20132;-96
2022/06/27 02:23:46;;;;;;;12.75;8.18;;;17.20;99.90;;;;;;5021561;28;20041;-96
2022/06/27 02:26:13;;;;;;;9.38;7.10;;;17.30;99.90;;;;;;4997985;28;20042;-94
2022/06/27 02:28:39;;;;;;;10.20;6.38;;;17.20;99.90;;;;;;4999590;28;20042;-96
2022/06/27 02:31:06;;;;;;;13.52;7.00;;;17.20;99.90;;;;;;5007366;28;20030;-96
2022/06/27 02:33:41;;;;;;;7.30;5.90;;;17.20;99.90;;;;;;4996721;28;20025;-96
2022/06/27 02:36:09;;;;;;;7.88;5.97;;;17.30;99.90;;;;;;4998615;28;20041;-95
2022/06/27 02:38:38;;;;;;;10.50;6.05;;;17.20;99.90;;;;;;4994524;28;20152;-96
2022/06/27 02:41:07;;;;;;;6.82;6.00;;;17.20;99.90;;;;;;5009384;28;20068;-96
2022/06/27 02:43:35;;;;;;;8.05;7.03;;;17.30;99.90;;;;;;4982727;28;20044;-96
2022/06/27 02:46:01;;;;;;;8.20;5.95;;;17.30;99.90;;;;;;5013996;28;20366;-96
2022/06/27 02:48:30;;;;;;;7.32;6.30;;;17.30;99.90;;;;;;4962704;28;20052;-95
2022/06/27 02:50:58;;;;;;;7.05;6.18;;;17.30;99.90;;;;;;4978354;28;20073;-96
2022/06/27 02:53:28;;;;;;;9.30;6.85;;;17.30;99.90;;;;;;5012474;28;20038;-93
2022/06/27 02:55:55;;;;;;;8.82;6.35;;;17.30;99.90;;;;;;5011945;28;20046;-94
2022/06/27 02:58:35;;;;;;;9.23;6.63;;;17.30;99.90;;;;;;5002814;28;20042;-95
2022/06/27 03:01:03;;;;;;;9.50;7.45;;;17.30;99.90;;;;;;5007362;28;20046;-94
2022/06/27 03:03:32;;;;;;;8.23;7.35;;;17.30;99.90;;;;;;5007946;28;20097;-95
2022/06/27 03:05:59;;;;;;;10.25;7.85;;;17.20;99.90;;;;;;5008164;28;20030;-93
2022/06/27 03:08:34;;;;;;;10.82;8.00;;;17.20;99.90;;;;;;5006898;28;20045;-95
2022/06/27 03:11:01;;;;;;;10.80;7.30;;;17.10;99.90;;;;;;5026366;28;20576;-95
2022/06/27 03:13:26;;;;;;;12.32;8.48;;;17.10;99.90;;;;;;4994141;28;20110;-95
2022/06/27 03:15:52;;;;;;;10.75;8.07;;;17.10;99.90;;;;;;5010708;28;20030;-95
2022/06/27 03:18:18;;;;;;;14.27;9.35;;;17.10;99.90;;;;;;5011445;28;20136;-95
2022/06/27 03:20:43;;;;;;;12.32;8.82;;;17.00;99.90;;;;;;5014440;28;20074;-95
2022/06/27 03:23:09;;;;;;;12.27;9.00;;;17.00;99.90;;;;;;5009569;28;20050;-95
2022/06/27 03:25:35;;;;;;;15.57;9.95;;;17.00;99.90;;;;;;5012179;28;20038;-93
2022/06/27 03:28:01;;;;;;;10.40;9.15;;;17.00;99.90;;;;;;5011429;28;20089;-95
2022/06/27 03:30:27;;;;;;;14.20;9.18;;;17.10;99.90;;;;;;4977071;28;20088;-94
2022/06/27 03:32:53;;;;;;;10.70;9.35;;;17.00;99.90;;;;;;4993572;28;20100;-93
2022/06/27 03:35:18;;;;;;;14.23;10.68;;;17.00;99.90;;;;;;4993528;28;20136;-95
2022/06/27 03:37:44;;;;;;;13.32;10.38;;;17.00;99.90;;;;;;4993802;28;20042;-94
2022/06/27 03:40:10;;;;;;;20.33;10.00;;;17.00;99.90;;;;;;4992979;28;20042;-95
2022/06/27 03:42:36;;;;;;;12.02;10.05;;;17.00;99.90;;;;;;4977412;28;20049;-94
2022/06/27 03:45:02;;;;;;;15.00;10.35;;;17.00;99.90;;;;;;4976717;28;20444;-95
2022/06/27 03:47:28;;;;;;;13.70;11.18;;;17.00;99.90;;;;;;5008671;28;20046;-92
2022/06/27 03:50:02;;;;;;;13.38;10.77;;;17.00;99.90;;;;;;4992518;28;20116;-94
2022/06/27 03:52:29;;;;;;;14.32;11.82;;;17.00;99.90;;;;;;4993309;28;20132;-94
2022/06/27 03:54:54;;;;;;;16.20;11.20;;;17.00;99.90;;;;;;4992310;28;20157;-94
2022/06/27 03:57:20;;;;;;;12.93;10.52;;;17.00;99.90;;;;;;4992921;28;20085;-93
2022/06/27 03:59:46;;;;;;;14.57;11.00;;;17.00;99.90;;;;;;4993059;28;20104;-95
2022/06/27 04:02:12;;;;;;;12.57;10.95;;;17.10;99.90;;;;;;4992888;28;20477;-95
2022/06/27 04:04:37;;;;;;;12.20;9.98;;;16.90;99.90;;;;;;4991517;28;20065;-96
2022/06/27 04:07:03;;;;;;;15.32;9.98;;;16.90;99.90;;;;;;5008286;28;20053;-96
2022/06/27 04:09:30;;;;;;;15.00;10.23;;;16.90;99.90;;;;;;4959525;28;20045;-93
2022/06/27 04:11:55;;;;;;;12.00;9.18;;;16.90;99.90;;;;;;4992002;28;20088;-94
2022/06/27 04:14:21;;;;;;;12.02;9.48;;;17.10;99.90;;;;;;4991959;28;20077;-94
2022/06/27 04:16:47;;;;;;;12.57;8.68;;;16.90;99.90;;;;;;5008050;28;20042;-95
2022/06/27 04:19:13;;;;;;;11.48;9.25;;;16.90;99.90;;;;;;4992197;28;20077;-93
2022/06/27 04:21:39;;;;;;;10.73;8.20;;;16.90;99.90;;;;;;4991034;28;20102;-95
2022/06/27 04:24:05;;;;;;;13.27;7.70;;;16.90;99.90;;;;;;4992185;28;20410;-94
2022/06/27 04:26:31;;;;;;;13.05;8.38;;;16.90;99.90;;;;;;4992570;28;20038;-95
2022/06/27 04:28:57;;;;;;;8.73;7.65;;;16.90;99.90;;;;;;5020180;28;20389;-95
2022/06/27 04:31:23;;;;;;;11.52;8.57;;;16.90;99.90;;;;;;5015329;28;20035;-96
2022/06/27 04:33:49;;;;;;;9.98;8.48;;;16.90;99.90;;;;;;5006680;28;20088;-93
2022/06/27 04:36:14;;;;;;;10.63;7.00;;;17.00;99.90;;;;;;4963345;28;20120;-95
2022/06/27 04:38:40;;;;;;;11.15;7.50;;;17.00;99.90;;;;;;4959822;28;20041;-95
2022/06/27 04:41:06;;;;;;;10.43;7.05;;;17.00;99.90;;;;;;4961249;28;20046;-96
2022/06/27 04:43:34;;;;;;;7.40;6.68;;;17.00;99.90;;;;;;4975840;28;20133;-95
2022/06/27 04:46:02;;;;;;;10.63;6.90;;;17.10;99.90;;;;;;4992260;28;20442;-94
2022/06/27 04:48:29;;;;;;;13.07;6.38;;;17.10;99.90;;;;;;4976803;28;20473;-94
2022/06/27 04:50:57;;;;;;;10.63;6.40;;;17.10;99.90;;;;;;4976433;28;20149;-94
2022/06/27 04:53:22;;;;;;;7.68;5.45;;;17.10;99.90;;;;;;4995012;28;20057;-94
2022/06/27 04:55:49;;;;;;;8.20;6.75;;;17.10;99.90;;;;;;4977098;28;20037;-94
2022/06/27 04:58:15;;;;;;;6.93;6.25;;;17.10;99.90;;;;;;4963158;28;20073;-94
2022/06/27 05:00:42;;;;;;;5.53;4.97;;;17.10;99.90;;;;;;4976776;28;20046;-92
2022/06/27 05:03:08;;;;;;;6.63;5.65;;;17.20;99.90;;;;;;4976528;28;20064;-94
2022/06/27 05:05:34;;;;;;;10.32;5.43;;;17.10;99.90;;;;;;4975623;28;20049;-89
2022/06/27 05:08:00;;;;;;;6.20;4.53;;;17.10;99.90;;;;;;4973996;28;20045;-89
2022/06/27 05:10:26;;;;;;;5.88;4.82;;;18.00;99.90;;;;;;4975706;28;20060;-93
2022/06/27 05:12:52;;;;;;;5.55;5.00;;;17.20;99.90;;;;;;4975259;28;20105;-93
2022/06/27 05:15:18;;;;;;;5.22;4.70;;;17.40;99.90;;;;;;4959769;28;20137;-92
2022/06/27 05:17:44;;;;;;;6.20;5.03;;;17.30;99.90;;;;;;4958174;28;20050;-93
2022/06/27 05:20:10;;;;;;;6.07;4.80;;;17.30;99.90;;;;;;4975359;28;20042;-91
2022/06/27 05:22:36;;;;;;;7.05;4.22;;;17.40;99.90;;;;;;4974010;28;20041;-91
2022/06/27 05:25:02;;;;;;;5.22;4.65;;;17.40;99.90;;;;;;4958950;28;20049;-94
2022/06/27 05:27:28;;;;;;;4.00;3.60;;;17.40;99.90;;;;;;4990808;28;20038;-94
2022/06/27 05:29:54;;;;;;;4.00;3.55;;;17.40;99.90;;;;;;4958677;28;20084;-90
2022/06/27 05:32:19;;;;;;;4.03;3.58;;;17.50;99.90;;;;;;4974046;28;20048;-92
2022/06/27 05:34:45;;;;;;;4.68;3.17;;;17.40;99.90;;;;;;4958431;28;20046;-93
2022/06/27 05:37:11;;;;;;;3.92;2.67;;;17.50;99.90;;;;;;4977288;28;20107;-94
2022/06/27 05:39:37;;;;;;;3.60;2.25;;;17.50;99.90;;;;;;4961214;28;20056;-94
2022/06/27 05:42:04;;;;;;;4.15;1.98;;;17.50;99.90;;;;;;4977417;28;20485;-96
2022/06/27 05:44:30;;;;;;;3.88;2.03;;;17.50;99.90;;;;;;4978711;28;20053;-94
2022/06/27 05:46:57;;;;;;;2.00;1.80;;;17.50;99.90;;;;;;4961625;28;20042;-96
2022/06/27 05:49:24;;;;;;;4.32;2.40;;;17.50;99.90;;;;;;4976311;28;20502;-88
2022/06/27 05:51:52;;;;;;;1.88;1.45;;;17.40;99.90;;;;;;4990833;28;20034;-89
2022/06/27 05:54:18;;;;;;;2.30;1.92;;;17.40;99.90;;;;;;4997280;28;20026;-91
2022/06/27 05:56:44;;;;;;;1.58;1.35;;;17.40;99.90;;;;;;5028323;28;20038;-90
2022/06/27 05:59:10;;;;;;;1.63;1.25;;;17.40;99.90;;;;;;4981979;28;20062;-90
2022/06/27 06:01:37;;;;;;;1.70;1.33;;;17.50;99.90;;;;;;4980164;28;20038;-89
2022/06/27 06:04:06;;;;;;;2.95;1.45;;;17.60;99.90;;;;;;4977660;28;20054;-90
2022/06/27 06:06:32;;;;;;;2.17;1.40;;;17.70;99.90;;;;;;4993580;28;20046;-90
2022/06/27 06:08:59;;;;;;;4.22;1.40;;;17.90;99.90;;;;;;4992403;28;20104;-90
2022/06/27 06:11:25;;;;;;;3.40;1.40;;;18.00;99.90;;;;;;4958447;28;20038;-89
2022/06/27 06:13:52;;;;;;;1.25;1.15;;;18.10;99.90;;;;;;4988333;28;20046;-89
2022/06/27 06:16:19;;;;;;;1.40;1.30;;;19.10;99.90;;;;;;4989091;28;20033;-90
2022/06/27 06:18:57;;;;;;;2.85;1.75;;;18.20;99.90;;;;;;4988211;28;20053;-89
2022/06/27 06:21:23;;;;;;;3.05;1.48;;;18.20;99.90;;;;;;4973745;28;20112;-90
2022/06/27 06:23:51;;;;;;;1.88;1.08;;;18.20;99.90;;;;;;4973462;28;20088;-90
2022/06/27 06:26:19;;;;;;;7.13;1.75;;;18.20;99.90;;;;;;4992684;28;20137;-90
2022/06/27 06:28:46;;;;;;;2.03;1.30;;;18.20;99.90;;;;;;4994671;28;20049;-89
2022/06/27 06:31:15;;;;;;;5.15;1.10;;;18.20;99.90;;;;;;4978211;28;20050;-90
2022/06/27 06:33:42;;;;;;;2.10;1.05;;;18.10;99.90;;;;;;4974226;28;20099;-90
2022/06/27 06:36:09;;;;;;;3.20;1.10;;;18.10;99.90;;;;;;4990087;28;20048;-89
2022/06/27 06:38:35;;;;;;;1.83;0.95;;;18.10;99.90;;;;;;4988591;28;20104;-89
2022/06/27 06:41:01;;;;;;;2.47;0.90;;;18.10;99.90;;;;;;4988295;28;20061;-88
2022/06/27 06:43:27;;;;;;;1.50;0.82;;;18.10;99.90;;;;;;4987524;28;20042;-89
2022/06/27 06:45:53;;;;;;;1.63;1.27;;;18.10;99.90;;;;;;4956354;28;20492;-89
2022/06/27 06:48:19;;;;;;;1.52;1.17;;;18.00;99.90;;;;;;4956081;28;20081;-90
2022/06/27 06:50:45;;;;;;;1.60;1.27;;;18.00;99.90;;;;;;4973027;28;20056;-90
2022/06/27 06:53:11;;;;;;;2.75;1.25;;;18.00;99.90;;;;;;5004753;28;20041;-90
2022/06/27 06:55:36;;;;;;;3.33;1.35;;;18.00;99.90;;;;;;4956816;28;20080;-90
2022/06/27 06:58:02;;;;;;;3.00;1.48;;;18.40;99.90;;;;;;4988762;28;20049;-91
2022/06/27 07:00:28;;;;;;;2.15;1.52;;;18.10;99.90;;;;;;4971845;28;20096;-90
2022/06/27 07:02:55;;;;;;;3.38;1.20;;;18.10;99.90;;;;;;4957005;28;20042;-91
2022/06/27 07:05:22;;;;;;;1.50;1.20;;;18.00;99.90;;;;;;4972437;28;20103;-91
2022/06/27 07:07:51;;;;;;;1.60;1.27;;;18.10;99.90;;;;;;4956981;28;20054;-91
2022/06/27 07:10:18;;;;;;;3.08;1.10;;;18.10;99.90;;;;;;4957210;28;20627;-92
2022/06/27 07:12:45;;;;;;;3.22;1.30;;;18.10;99.90;;;;;;4972850;28;20046;-91
2022/06/27 07:15:12;;;;;;;2.08;1.35;;;18.00;99.90;;;;;;4973288;28;20046;-91
2022/06/27 07:17:43;;;;;;;1.83;1.38;;;18.00;99.90;;;;;;4989132;28;20188;-92
2022/06/27 07:20:10;;;;;;;3.47;1.45;;;18.10;99.90;;;;;;4990024;28;20046;-93
2022/06/27 07:22:36;;;;;;;2.45;1.23;;;18.10;99.90;;;;;;4972348;28;20057;-93
2022/06/27 07:25:02;;;;;;;1.65;1.35;;;18.20;99.90;;;;;;4989043;28;20050;-93
2022/06/27 07:27:27;;;;;;;1.60;1.35;;;18.20;99.90;;;;;;4956107;28;20049;-92
2022/06/27 07:29:54;;;;;;;4.30;1.42;;;18.20;99.90;;;;;;4956420;28;20126;-93
2022/06/27 07:32:20;;;;;;;3.85;1.58;;;18.20;99.90;;;;;;4972866;28;20158;-94
2022/06/27 07:34:47;;;;;;;3.30;1.40;;;18.20;99.90;;;;;;4956568;28;20121;-91
2022/06/27 07:37:13;;;;;;;1.95;1.30;;;18.20;99.90;;;;;;4957109;28;20045;-92
2022/06/27 07:39:40;;;;;;;2.80;1.35;;;18.20;99.90;;;;;;4955990;28;20092;-91
2022/06/27 07:42:06;;;;;;;1.60;1.30;;;18.40;99.90;;;;;;4988880;28;20042;-90
2022/06/27 07:44:34;;;;;;;2.03;1.40;;;18.10;99.90;;;;;;4988566;28;20141;-91
2022/06/27 07:47:01;;;;;;;2.17;1.42;;;18.10;99.90;;;;;;4989179;28;20096;-91
2022/06/27 07:49:27;;;;;;;1.73;1.27;;;18.10;99.90;;;;;;4972874;28;20046;-91
2022/06/27 07:51:52;;;;;;;2.13;1.50;;;18.10;99.90;;;;;;4987843;28;20052;-91
2022/06/27 07:54:19;;;;;;;2.72;1.42;;;18.10;99.90;;;;;;4988971;28;20046;-92
2022/06/27 07:56:46;;;;;;;1.90;1.55;;;18.00;99.90;;;;;;4989143;28;20048;-91
2022/06/27 07:59:13;;;;;;;1.83;1.52;;;18.00;99.90;;;;;;4992290;28;20041;-91
2022/06/27 08:01:40;;;;;;;3.83;1.48;;;18.00;99.90;;;;;;4959733;28;20050;-92
2022/06/27 08:04:07;;;;;;;1.67;1.45;;;18.10;99.90;;;;;;4959943;28;20493;-92
2022/06/27 08:06:33;;;;;;;3.40;1.90;;;18.10;99.90;;;;;;4976025;28;20053;-91
2022/06/27 08:09:05;;;;;;;2.67;1.90;;;18.00;99.90;;;;;;4975066;28;20042;-91
2022/06/27 08:11:42;;;;;;;4.93;2.92;;;18.10;99.90;;;;;;4991715;28;20042;-90
2022/06/27 08:14:11;;;;;;;2.22;2.00;;;18.10;99.90;;;;;;4992825;28;20100;-90
2022/06/27 08:16:41;;;;;;;7.53;2.45;;;18.20;99.90;;;;;;4975188;28;20046;-90
2022/06/27 08:19:09;;;;;;;3.15;2.10;;;18.20;99.90;;;;;;4991131;28;20046;-91
2022/06/27 08:21:35;;;;;;;2.08;1.88;;;18.30;99.90;;;;;;4991935;28;20049;-89
2022/06/27 08:24:07;;;;;;;3.40;2.25;;;18.30;99.90;;;;;;4985259;28;20041;-89
2022/06/27 08:26:35;;;;;;;2.40;1.90;;;18.40;99.90;;;;;;5010445;28;20073;-90
2022/06/27 08:29:04;;;;;;;3.10;2.25;;;18.40;99.90;;;;;;4994309;28;20045;-90
2022/06/27 08:31:34;;;;;;;2.72;2.03;;;18.50;99.90;;;;;;4959316;28;20046;-90
2022/06/27 08:34:01;;;;;;;2.92;2.15;;;18.50;99.90;;;;;;4959206;28;20069;-90
2022/06/27 08:36:35;;;;;;;4.07;2.25;;;18.60;99.90;;;;;;4990952;28;20080;-90
2022/06/27 08:39:05;;;;;;;2.97;2.33;;;18.70;99.90;;;;;;4990386;28;20552;-89
2022/06/27 08:41:31;;;;;;;5.13;2.33;;;18.80;99.90;;;;;;5007341;28;20045;-88
2022/06/27 08:44:00;;;;;;;2.50;2.22;;;18.90;99.90;;;;;;5006002;28;20057;-90
2022/06/27 08:46:28;;;;;;;2.70;1.90;;;18.90;99.90;;;;;;4990037;28;20050;-90
2022/06/27 08:48:55;;;;;;;2.58;1.95;;;18.90;99.90;;;;;;5006084;28;20086;-90
2022/06/27 08:51:21;;;;;;;3.33;2.20;;;18.90;99.90;;;;;;5006504;28;20049;-90
2022/06/27 08:53:53;;;;;;;2.42;2.22;;;18.90;99.90;;;;;;4974193;28;20044;-90
2022/06/27 08:56:20;;;;;;;3.53;2.00;;;18.90;99.90;;;;;;4989519;28;20048;-89
2022/06/27 08:58:50;;;;;;;2.40;2.00;;;18.90;99.90;;;;;;4990509;28;20089;-89
2022/06/27 09:01:19;;;;;;;2.55;2.10;;;18.90;99.90;;;;;;4989452;28;20045;-90
2022/06/27 09:04:11;;;;;;;2.67;1.90;;;18.90;99.90;;;;;;4989754;28;20080;-88
2022/06/27 09:06:43;;;;;;;2.95;1.70;;;18.80;99.90;;;;;;4987609;28;20054;-89
2022/06/27 09:09:11;;;;;;;1.85;1.33;;;18.80;99.90;;;;;;4989152;28;20164;-89
2022/06/27 09:11:43;;;;;;;2.58;1.48;;;18.90;99.90;;;;;;4973927;28;20049;-89
2022/06/27 09:14:30;;;;;;;3.40;1.60;;;18.90;99.90;;;;;;5005718;28;20054;-89
2022/06/27 09:16:58;;;;;;;2.35;1.52;;;19.00;99.90;;;;;;4989547;28;20396;-89
2022/06/27 09:19:54;;;;;;;2.90;2.25;;;19.00;99.90;;;;;;4989606;28;20524;-89
2022/06/27 09:22:23;;;;;;;2.28;1.73;;;19.20;99.90;;;;;;4989111;28;20042;-88
2022/06/27 09:25:09;;;;;;;3.38;2.30;;;19.40;99.90;;;;;;5005692;28;20046;-87
2022/06/27 09:27:38;;;;;;;3.78;2.13;;;19.50;99.90;;;;;;5005556;28;20052;-88
2022/06/27 09:30:24;;;;;;;2.90;2.30;;;19.50;99.90;;;;;;5005033;28;20046;-89
2022/06/27 09:32:53;;;;;;;4.28;2.45;;;19.60;99.90;;;;;;5005779;28;20053;-88
2022/06/27 09:35:32;;;;;;;3.38;2.28;;;19.70;99.90;;;;;;4988709;28;20046;-89
2022/06/27 09:38:07;;;;;;;3.10;2.22;;;19.70;99.90;;;;;;5005143;28;20045;-88
2022/06/27 09:40:34;;;;;;;2.42;2.22;;;19.70;99.90;;;;;;4974115;28;20103;-88
2022/06/27 09:43:01;;;;;;;2.15;2.00;;;19.60;99.90;;;;;;4989010;28;20049;-89
2022/06/27 09:45:29;;;;;;;2.72;2.03;;;19.50;99.90;;;;;;4973079;28;20161;-88
2022/06/27 09:48:06;;;;;;;3.88;2.13;;;20.30;99.90;;;;;;4988093;28;20504;-89
2022/06/27 09:50:35;;;;;;;5.60;2.00;;;19.40;99.90;;;;;;5005214;28;20081;-89
2022/06/27 09:53:02;;;;;;;2.78;2.25;;;19.50;99.90;;;;;;5004686;28;20045;-87
2022/06/27 09:55:28;;;;;;;3.33;2.05;;;19.20;99.90;;;;;;4988768;28;20519;-88
2022/06/27 09:57:55;;;;;;;2.40;1.98;;;19.20;99.90;;;;;;5005246;28;20092;-88
2022/06/27 10:00:22;;;;;;;3.80;2.13;;;19.20;99.90;;;;;;5004960;28;20042;-89
2022/06/27 10:02:49;;;;;;;3.30;2.03;;;20.20;99.90;;;;;;4989538;28;20084;-88
2022/06/27 10:05:17;;;;;;;2.28;2.03;;;19.30;99.90;;;;;;4971914;28;20386;-88
2022/06/27 10:07:58;;;;;;;3.47;2.08;;;19.30;99.90;;;;;;4989300;28;20440;-88
2022/06/27 10:10:26;;;;;;;2.92;2.25;;;19.40;99.90;;;;;;5005095;28;20096;-89
2022/06/27 10:13:01;;;;;;;3.65;2.80;;;19.70;99.90;;;;;;4988995;28;20113;-88
2022/06/27 10:15:36;;;;;;;2.42;2.22;;;19.60;99.90;;;;;;5005747;28;20540;-89
2022/06/27 10:18:03;;;;;;;3.40;2.45;;;19.50;99.90;;;;;;4988545;28;20072;-89
2022/06/27 10:20:36;;;;;;;3.50;2.42;;;19.50;99.90;;;;;;4991294;28;20139;-88
2022/06/27 10:23:11;;;;;;;4.97;2.83;;;19.50;99.90;;;;;;5009908;28;20053;-89
2022/06/27 10:25:40;;;;;;;3.83;2.67;;;19.50;99.90;;;;;;4990597;28;20048;-89
2022/06/27 10:28:12;;;;;;;8.50;2.95;;;19.50;99.90;;;;;;5006239;28;20038;-89
2022/06/27 10:30:50;;;;;;;6.87;2.90;;;19.50;99.90;;;;;;4987512;28;20489;-88
2022/06/27 10:33:25;;;;;;;4.63;3.30;;;19.60;99.90;;;;;;5005107;28;20468;-89
2022/06/27 10:36:02;;;;;;;10.80;3.58;;;19.60;99.90;;;;;;5004910;28;20382;-90
2022/06/27 10:38:30;;;;;;;5.28;3.05;;;19.70;99.90;;;;;;5004891;28;20061;-87
2022/06/27 10:40:57;;;;;;;7.45;4.53;;;19.80;99.90;;;;;;5006024;28;20072;-89
2022/06/27 10:43:43;;;;;;;6.28;3.53;;;19.70;99.90;;;;;;4955229;28;20081;-89
2022/06/27 10:46:11;;;;;;;4.30;3.70;;;19.70;99.90;;;;;;4988075;28;20042;-89
2022/06/27 10:48:58;;;;;;;6.03;3.53;;;19.80;99.90;;;;;;5004090;28;20081;-89
2022/06/27 10:51:26;;;;;;;4.45;3.55;;;19.90;99.90;;;;;;4990696;28;20062;-89
2022/06/27 10:53:52;;;;;;;4.75;3.60;;;20.00;99.90;;;;;;5005659;28;20038;-89
2022/06/27 10:56:36;;;;;;;8.10;3.65;;;20.10;99.90;;;;;;5003515;28;20092;-88
2022/06/27 10:59:16;;;;;;;2.97;2.47;;;20.10;99.90;;;;;;5004120;28;20054;-89
2022/06/27 11:01:52;;;;;;;5.47;2.95;;;20.10;99.90;;;;;;4987444;28;20096;-89
2022/06/27 11:04:32;;;;;;;10.07;3.63;;;20.20;99.90;;;;;;4972503;28;20556;-89
2022/06/27 11:07:06;;;;;;;2.70;2.45;;;20.20;99.90;;;;;;4987934;28;20088;-88
2022/06/27 11:09:37;;;;;;;3.50;2.60;;;20.30;99.90;;;;;;5003342;28;20054;-87
2022/06/27 11:12:04;;;;;;;5.30;2.77;;;20.30;99.90;;;;;;4987983;28;20511;-91
2022/06/27 11:14:30;;;;;;;4.78;2.35;;;20.20;99.90;;;;;;4987956;28;20050;-90
2022/06/27 11:16:56;;;;;;;2.45;2.05;;;20.40;99.90;;;;;;4971902;28;20064;-90
2022/06/27 11:22:20;;;;;;;2.88;2.10;;;20.60;99.90;;;;;;4976385;28;20046;-89
2022/06/27 11:24:47;;;;;;;3.08;2.40;;;20.60;99.90;;;;;;4987788;28;20054;-89
2022/06/27 11:27:15;;;;;;;4.03;2.65;;;20.60;99.90;;;;;;4971739;28;20409;-89
2022/06/27 11:32:27;;;;;;;3.63;2.22;;;20.50;99.90;;;;;;5007866;28;20089;-88
2022/06/27 11:34:53;;;;;;;2.88;2.20;;;20.50;99.90;;;;;;5007355;28;20447;-88
2022/06/27 11:37:23;;;;;;;2.47;1.67;;;20.50;99.90;;;;;;5007678;28;20053;-89
2022/06/27 11:40:04;;;;;;;2.70;2.08;;;20.50;99.90;;;;;;5007837;28;20069;-89
2022/06/27 11:42:33;;;;;;;4.30;1.92;;;20.50;99.90;;;;;;5007318;28;20050;-88
2022/06/27 11:45:10;;;;;;;3.88;2.45;;;20.40;99.90;;;;;;4991441;28;20480;-88
2022/06/27 11:47:43;;;;;;;2.92;1.90;;;20.40;99.90;;;;;;5007176;28;20432;-89
2022/06/27 11:50:15;;;;;;;8.75;1.80;;;20.30;99.90;;;;;;5007344;28;20050;-88
2022/06/27 11:52:50;;;;;;;3.13;1.98;;;20.30;99.90;;;;;;4990394;28;20053;-88
2022/06/27 11:55:19;;;;;;;3.35;1.92;;;20.30;99.90;;;;;;4991342;28;20053;-88
2022/06/27 11:57:49;;;;;;;3.30;1.67;;;20.20;99.90;;;;;;4991188;28;20077;-89
2022/06/27 12:00:17;;;;;;;3.05;2.15;;;20.20;99.90;;;;;;4990336;28;20081;-87
2022/06/27 12:02:44;;;;;;;7.22;2.50;;;20.20;99.90;;;;;;4991461;28;20042;-88
2022/06/27 12:05:17;;;;;;;4.22;2.35;;;20.10;99.90;;;;;;4990187;28;20050;-89
2022/06/27 12:07:53;;;;;;;3.00;2.13;;;20.10;99.90;;;;;;4990934;28;20054;-88
2022/06/27 12:13:37;;;;;;;2.47;1.88;;;20.10;99.90;;;;;;5006779;28;20053;-88
2022/06/27 12:16:06;;;;;;;3.55;2.25;;;20.10;99.90;;;;;;4992524;28;20077;-89
2022/06/27 12:18:44;;;;;;;3.13;2.05;;;20.00;99.90;;;;;;4986248;28;20061;-91
2022/06/27 12:21:10;;;;;;;4.65;2.25;;;20.00;99.90;;;;;;5009270;28;20045;-90
2022/06/27 12:23:36;;;;;;;3.97;3.03;;;20.10;99.90;;;;;;4993531;28;20053;-90
2022/06/27 12:26:02;;;;;;;4.47;2.92;;;20.00;99.90;;;;;;4975014;28;20042;-90
2022/06/27 12:28:28;;;;;;;5.13;2.72;;;20.00;99.90;;;;;;4976316;28;20077;-91
2022/06/27 12:30:54;;;;;;;3.60;2.53;;;20.10;99.90;;;;;;4976390;28;20046;-92
2022/06/27 12:33:20;;;;;;;5.43;3.75;;;20.10;99.90;;;;;;4978896;28;20045;-91
2022/06/27 12:35:45;;;;;;;4.53;4.10;;;20.10;99.90;;;;;;4978241;28;20034;-93
2022/06/27 12:38:11;;;;;;;4.47;3.15;;;20.20;99.90;;;;;;4976158;28;20035;-92
2022/06/27 12:40:37;;;;;;;4.88;3.20;;;20.20;99.90;;;;;;4959473;28;20306;-93
2022/06/27 12:43:04;;;;;;;4.97;3.58;;;20.30;99.90;;;;;;4975108;28;20053;-93
2022/06/27 12:45:32;;;;;;;4.10;3.55;;;20.30;99.90;;;;;;4977249;28;20042;-93
2022/06/27 12:48:06;;;;;;;4.47;3.35;;;20.30;99.90;;;;;;4991978;28;20100;-94
2022/06/27 12:50:32;;;;;;;3.45;3.13;;;20.40;99.90;;;;;;4991937;28;20050;-92
2022/06/27 12:52:58;;;;;;;4.63;3.28;;;20.40;99.90;;;;;;4975832;28;20052;-93
2022/06/27 12:55:24;;;;;;;4.95;3.40;;;20.50;99.90;;;;;;4991625;28;20133;-92
2022/06/27 12:57:49;;;;;;;5.53;4.10;;;20.50;99.90;;;;;;4961395;28;20159;-96
2022/06/27 13:00:16;;;;;;;3.95;3.25;;;20.60;99.90;;;;;;4974980;28;20125;-90